Airfield :
LOGIN :

Register | Disclaimer

   EN    FR    IT 

 










Legend :    VFR   Marginal VFR   IFR   Intensive IFR   Very Intensive IFR
Visi :
Ceiling :
>= 8 km
>= 3000ft
5 to 8 km
1000 to 3000 ft
1500m to 5 km
500 to 1000 ft
800 to 1500m
200 to 500 ft
< 800m
< 200 ft
Symbols :   Thunderstorms  Fog  Heavy snow  Heavy precipitations  Wind > 20 kt
SIGMETs :     Misc.  Thunderstorms  Icing  Turbulence  Mountain Waves  Volcanic Ashes






- Airport Elevation : 74 ft
- IATA code : MRS


LFML - Marseille / Marignane

CURRENT METAR :
  • 230200Z AUTO 16002KT 8000 NSC 04/03 Q1031 TEMPO 2000 BR

EXPIRED METARs :
  • 230130Z AUTO 32002KT CAVOK 06/05 Q1032
  • 230100Z AUTO 13003KT 9000 NSC 06/05 Q1032 TEMPO 2000 BR
  • 230030Z AUTO 12003KT CAVOK 06/05 Q1032 TEMPO 2000 BR
  • 230000Z AUTO 13003KT 5000 BR NSC 06/05 Q1033 TEMPO 2000 BR
  • 222330Z AUTO 13004KT 7000 NSC 07/06 Q1033 TEMPO 2000 BR

TAF TAF LFML
Valid from the 22 at 21:00 until the 24 at 03:00 UTC


222000Z 2221/2403 VRB04KT CAVOK TX17/2315Z TN06/2306Z
TEMPO 2300/2311 2000 BR
PROB30
TEMPO 2307/2311 0800 FG VV///
TEMPO 2314/2318 25010KT
ATIS : +33 4 42 31 15 15



MET'MAP, your aeronautical weather chart ! - Copyright ORBIFLY December 2007 - Disclaimer

ORBIFLY MET'MAP TEAM :

Programming & Development : Alexandra Zaïnal
Concept & original design : Baudouin d'Aumeries
Assistance for programming : Marc-Olivier Méhu
Technical & hardware support : Manuel Goepfert

Contact : metmap@orbifly.com




SOURCES & CREDITS :

   NOAA